Time;durP1;ratioP1;P1;durP2;ratioP2;P2;SDS_P1;SDS_P2;PMS_P1;PMS_P2;Temp;Humidity;BMP_temperature;BMP_pressure;BME280_temperature;BME280_humidity;BME280_pressure;Samples;Min_cycle;Max_cycle;Signal;HPM_P1;HPM_P2
2021/10/20 00:00:43;;;;;;;9.60;7.00;;;11.30;99.90;;;;;;5052351;28;20479;-77
2021/10/20 00:03:08;;;;;;;10.65;7.13;;;11.20;99.90;;;;;;5051983;28;20025;-77
2021/10/20 00:05:34;;;;;;;10.00;7.32;;;11.20;99.90;;;;;;5034628;28;20036;-78
2021/10/20 00:08:03;;;;;;;9.40;6.70;;;11.20;99.90;;;;;;5052549;28;20025;-78
2021/10/20 00:10:29;;;;;;;11.73;7.25;;;11.20;99.90;;;;;;5034549;28;20372;-78
2021/10/20 00:12:54;;;;;;;10.35;6.47;;;11.20;99.90;;;;;;5052205;28;20374;-77
2021/10/20 00:15:22;;;;;;;8.68;6.13;;;11.20;99.90;;;;;;5034336;28;20032;-77
2021/10/20 00:17:48;;;;;;;9.30;7.15;;;11.20;99.90;;;;;;5052377;28;20074;-77
2021/10/20 00:20:19;;;;;;;7.75;6.95;;;11.20;99.90;;;;;;5052331;28;20022;-77
2021/10/20 00:22:45;;;;;;;8.55;6.32;;;11.20;99.90;;;;;;5034387;28;20075;-78
2021/10/20 00:25:12;;;;;;;8.50;6.00;;;11.20;99.90;;;;;;5052261;28;20468;-78
2021/10/20 00:27:38;;;;;;;10.32;7.15;;;11.20;99.90;;;;;;5054995;28;20013;-78
2021/10/20 00:30:05;;;;;;;8.65;6.78;;;11.20;99.90;;;;;;5055680;28;20025;-77
2021/10/20 00:32:31;;;;;;;8.05;6.63;;;11.10;99.90;;;;;;5055852;28;20029;-78
2021/10/20 00:34:56;;;;;;;8.88;6.95;;;11.20;99.90;;;;;;5055738;28;20036;-78
2021/10/20 00:37:22;;;;;;;12.43;6.82;;;11.10;99.90;;;;;;5055807;28;20025;-78
2021/10/20 00:39:47;;;;;;;10.25;6.53;;;11.10;99.90;;;;;;5055661;28;20108;-77
2021/10/20 00:42:13;;;;;;;8.77;6.57;;;11.10;99.90;;;;;;5037965;28;20044;-78
2021/10/20 00:44:53;;;;;;;9.68;7.10;;;11.10;99.90;;;;;;5055518;28;20033;-78
2021/10/20 00:47:20;;;;;;;10.88;7.03;;;11.00;99.90;;;;;;5055658;28;20017;-77
2021/10/20 00:49:45;;;;;;;10.20;6.78;;;11.00;99.90;;;;;;5037812;28;20032;-78
2021/10/20 00:52:12;;;;;;;8.80;6.68;;;11.00;99.90;;;;;;5055152;28;20037;-77
2021/10/20 00:54:39;;;;;;;10.32;6.50;;;11.00;99.90;;;;;;5055467;28;20025;-78
2021/10/20 00:57:10;;;;;;;8.75;6.53;;;11.00;99.90;;;;;;5055528;28;20032;-77
2021/10/20 00:59:39;;;;;;;20.20;7.32;;;11.00;99.90;;;;;;5055240;28;20033;-77
2021/10/20 01:02:07;;;;;;;11.60;6.63;;;11.00;99.90;;;;;;5055416;28;20383;-77
2021/10/20 01:04:33;;;;;;;10.80;6.88;;;11.00;99.90;;;;;;5055319;28;20467;-77
2021/10/20 01:06:58;;;;;;;9.88;6.82;;;11.00;99.90;;;;;;5055280;28;20391;-78
2021/10/20 01:09:25;;;;;;;8.70;7.10;;;10.90;99.90;;;;;;5055177;28;20029;-77
2021/10/20 01:11:53;;;;;;;9.60;7.45;;;10.90;99.90;;;;;;5055063;28;20022;-77
2021/10/20 01:14:19;;;;;;;8.00;6.60;;;10.90;99.90;;;;;;5037191;28;20133;-78
2021/10/20 01:16:45;;;;;;;12.40;7.07;;;10.90;99.90;;;;;;5055148;28;20448;-78
2021/10/20 01:19:14;;;;;;;14.32;6.93;;;10.90;99.90;;;;;;5055105;28;20023;-77
2021/10/20 01:21:40;;;;;;;13.43;7.60;;;10.90;99.90;;;;;;5036988;28;20032;-77
2021/10/20 01:24:07;;;;;;;9.60;7.43;;;10.90;99.90;;;;;;5053417;28;20033;-78
2021/10/20 01:26:33;;;;;;;8.23;7.20;;;10.90;99.90;;;;;;5054934;28;20075;-77
2021/10/20 01:28:59;;;;;;;12.88;7.75;;;10.90;99.90;;;;;;5036874;28;20014;-78
2021/10/20 01:31:25;;;;;;;10.13;6.90;;;10.90;99.90;;;;;;5036757;28;20115;-78
2021/10/20 01:33:51;;;;;;;9.93;7.60;;;10.90;99.90;;;;;;5054706;28;20099;-78
2021/10/20 01:36:17;;;;;;;10.93;8.05;;;10.80;99.90;;;;;;5036876;28;20021;-78
2021/10/20 01:38:43;;;;;;;10.63;8.25;;;10.90;99.90;;;;;;5053749;28;20048;-78
2021/10/20 01:41:10;;;;;;;10.55;7.70;;;10.80;99.90;;;;;;5036717;28;20045;-78
2021/10/20 01:43:47;;;;;;;10.85;7.95;;;10.80;99.90;;;;;;5054600;28;20486;-78
2021/10/20 01:46:16;;;;;;;9.88;7.22;;;10.80;99.90;;;;;;5036665;28;20037;-78
2021/10/20 01:48:42;;;;;;;11.48;8.40;;;10.80;99.90;;;;;;5036477;28;20071;-78
2021/10/20 01:51:08;;;;;;;10.27;8.30;;;10.70;99.90;;;;;;5054397;28;20025;-78
2021/10/20 01:53:34;;;;;;;12.45;9.10;;;10.70;99.90;;;;;;5052935;28;20056;-78
2021/10/20 01:56:00;;;;;;;12.73;8.73;;;10.70;99.90;;;;;;5054171;28;20472;-78
2021/10/20 01:58:25;;;;;;;12.88;9.15;;;10.70;99.90;;;;;;5036210;28;20040;-78
2021/10/20 02:00:51;;;;;;;11.25;9.35;;;10.70;99.90;;;;;;5036259;28;20044;-77
2021/10/20 02:03:17;;;;;;;15.27;9.23;;;10.70;99.90;;;;;;5054226;28;20075;-78
2021/10/20 02:05:42;;;;;;;13.32;8.63;;;10.70;99.90;;;;;;5035884;28;20480;-78
2021/10/20 02:08:08;;;;;;;13.27;10.13;;;10.70;99.90;;;;;;5052672;28;20483;-77
2021/10/20 02:10:34;;;;;;;20.60;9.93;;;10.60;99.90;;;;;;5036103;28;20098;-77
2021/10/20 02:13:00;;;;;;;17.75;10.25;;;10.60;99.90;;;;;;5054060;28;20546;-78
2021/10/20 02:15:26;;;;;;;23.58;10.00;;;10.70;99.90;;;;;;5053945;28;20021;-78
2021/10/20 02:17:51;;;;;;;14.85;10.23;;;10.60;99.90;;;;;;5035879;28;20031;-78
2021/10/20 02:20:17;;;;;;;15.48;10.88;;;10.60;99.90;;;;;;5053877;28;20032;-78
2021/10/20 02:22:44;;;;;;;14.52;10.10;;;10.70;99.90;;;;;;5053919;28;20028;-84
2021/10/20 02:25:11;;;;;;;18.20;10.73;;;10.70;99.90;;;;;;5053652;28;20033;-81
2021/10/20 02:27:38;;;;;;;13.43;10.43;;;10.60;99.90;;;;;;5035880;28;20021;-79
2021/10/20 02:30:06;;;;;;;15.55;10.60;;;10.70;99.90;;;;;;5053642;28;20040;-80
2021/10/20 02:32:31;;;;;;;16.60;11.10;;;10.60;99.90;;;;;;5053623;28;20021;-80
2021/10/20 02:34:57;;;;;;;23.00;11.80;;;10.70;99.90;;;;;;5053802;28;20031;-78
2021/10/20 02:37:23;;;;;;;18.67;11.75;;;10.60;99.90;;;;;;5035500;28;20115;-78
2021/10/20 02:39:49;;;;;;;17.20;10.80;;;10.70;99.90;;;;;;5053277;28;20100;-78
2021/10/20 02:42:15;;;;;;;17.58;11.82;;;10.60;99.90;;;;;;5035697;28;20450;-78
2021/10/20 02:44:41;;;;;;;16.35;11.27;;;10.60;99.90;;;;;;5035485;28;20361;-79
2021/10/20 02:47:07;;;;;;;25.13;12.63;;;10.60;99.90;;;;;;5035526;28;20029;-79
2021/10/20 02:49:32;;;;;;;24.02;12.32;;;10.60;99.90;;;;;;5053266;28;20021;-78
2021/10/20 02:51:58;;;;;;;17.83;12.57;;;10.60;99.90;;;;;;5053285;28;20040;-78
2021/10/20 02:54:24;;;;;;;18.42;12.73;;;10.50;99.90;;;;;;5053507;28;20056;-78
2021/10/20 02:56:49;;;;;;;17.10;13.57;;;10.60;99.90;;;;;;5053258;28;20053;-78
2021/10/20 02:59:15;;;;;;;20.13;12.85;;;10.60;99.90;;;;;;5052739;28;20082;-79
2021/10/20 03:01:41;;;;;;;21.17;13.50;;;10.60;99.90;;;;;;5035271;28;20467;-78
2021/10/20 03:04:07;;;;;;;24.63;14.63;;;10.60;99.90;;;;;;5052960;28;20033;-78
2021/10/20 03:06:33;;;;;;;25.48;14.05;;;10.60;99.90;;;;;;5053109;28;20017;-78
2021/10/20 03:08:58;;;;;;;25.60;15.30;;;10.50;99.90;;;;;;5053189;28;20042;-78
2021/10/20 03:11:24;;;;;;;24.45;15.95;;;10.60;99.90;;;;;;5052849;28;20029;-79
2021/10/20 03:13:50;;;;;;;26.75;16.05;;;10.50;99.90;;;;;;5052907;28;20420;-80
2021/10/20 03:16:16;;;;;;;24.13;16.35;;;10.50;99.90;;;;;;5053034;28;20029;-79
2021/10/20 03:18:42;;;;;;;25.60;16.40;;;10.50;99.90;;;;;;5053071;28;20025;-79
2021/10/20 03:21:08;;;;;;;28.02;18.52;;;10.50;99.90;;;;;;5034666;28;20816;-80
2021/10/20 03:23:34;;;;;;;27.48;18.02;;;10.50;99.90;;;;;;5052935;28;20022;-80
2021/10/20 03:25:59;;;;;;;47.80;17.73;;;10.50;99.90;;;;;;5052991;28;20361;-79
2021/10/20 03:28:25;;;;;;;31.95;19.27;;;10.50;99.90;;;;;;5052905;28;20352;-80
2021/10/20 03:30:51;;;;;;;29.23;19.38;;;10.50;99.90;;;;;;5052948;28;20386;-80
2021/10/20 03:33:17;;;;;;;36.13;18.83;;;10.50;99.90;;;;;;5052872;28;20031;-79
2021/10/20 03:35:42;;;;;;;28.05;18.00;;;10.60;99.90;;;;;;5052627;28;20148;-79
2021/10/20 03:38:10;;;;;;;33.50;19.45;;;10.50;99.90;;;;;;5052876;28;20025;-80
2021/10/20 03:40:36;;;;;;;32.45;20.48;;;10.50;99.90;;;;;;5034828;28;20029;-81
2021/10/20 03:43:03;;;;;;;32.45;20.40;;;10.50;99.90;;;;;;5052526;28;20021;-80
2021/10/20 03:45:29;;;;;;;31.80;19.63;;;10.50;99.90;;;;;;5052736;28;20036;-81
2021/10/20 03:47:55;;;;;;;31.52;20.30;;;10.50;99.90;;;;;;5052516;28;20032;-79
2021/10/20 03:50:21;;;;;;;29.40;19.98;;;10.40;99.90;;;;;;5052459;28;20057;-79
2021/10/20 03:52:47;;;;;;;33.80;20.83;;;10.40;99.90;;;;;;5052613;28;20052;-79
2021/10/20 03:55:12;;;;;;;35.38;21.40;;;10.40;99.90;;;;;;5052613;28;20021;-78
2021/10/20 03:57:40;;;;;;;34.95;22.90;;;10.40;99.90;;;;;;5052481;28;20029;-78
2021/10/20 04:00:11;;;;;;;37.30;22.60;;;10.40;99.90;;;;;;5052379;28;20045;-78
2021/10/20 04:02:42;;;;;;;35.70;22.37;;;10.50;99.90;;;;;;5055409;28;20387;-78
2021/10/20 04:05:18;;;;;;;33.78;22.33;;;10.40;99.90;;;;;;5056302;28;20029;-79
2021/10/20 04:07:46;;;;;;;34.05;23.30;;;10.40;99.90;;;;;;5056415;28;20025;-79
2021/10/20 04:10:17;;;;;;;37.33;24.05;;;10.40;99.90;;;;;;5056306;28;20029;-79
2021/10/20 04:12:44;;;;;;;34.88;24.75;;;10.40;99.90;;;;;;5056395;28;20013;-79
2021/10/20 04:15:11;;;;;;;34.88;23.52;;;10.40;99.90;;;;;;5056124;28;20021;-79
2021/10/20 04:17:38;;;;;;;41.25;24.55;;;10.40;99.90;;;;;;5056130;28;20032;-78
2021/10/20 04:20:06;;;;;;;41.35;25.27;;;10.40;99.90;;;;;;5056165;28;20021;-78
2021/10/20 04:22:32;;;;;;;45.50;27.73;;;10.30;99.90;;;;;;5056134;28;20047;-77
2021/10/20 04:24:58;;;;;;;39.05;26.55;;;10.30;99.90;;;;;;5055950;28;20479;-80
2021/10/20 04:27:23;;;;;;;41.28;26.08;;;10.30;99.90;;;;;;5056068;28;20112;-79
2021/10/20 04:29:49;;;;;;;44.30;26.13;;;10.30;99.90;;;;;;5055820;28;20029;-79
2021/10/20 04:32:15;;;;;;;40.28;26.35;;;10.30;99.90;;;;;;5055915;28;20018;-79
2021/10/20 04:34:40;;;;;;;41.42;25.55;;;10.30;99.90;;;;;;5055935;28;20028;-81
2021/10/20 04:37:06;;;;;;;45.03;26.92;;;10.40;99.90;;;;;;5055964;28;20029;-81
2021/10/20 04:39:32;;;;;;;41.00;26.40;;;10.30;99.90;;;;;;5055776;28;20025;-80
2021/10/20 04:41:58;;;;;;;44.72;28.35;;;10.30;99.90;;;;;;5055817;28;20479;-81
2021/10/20 04:44:24;;;;;;;45.88;29.38;;;10.30;99.90;;;;;;5055581;28;20033;-81
2021/10/20 04:46:49;;;;;;;50.65;30.42;;;10.30;99.90;;;;;;5037840;28;20039;-80
2021/10/20 04:49:15;;;;;;;45.75;30.98;;;10.30;99.90;;;;;;5037641;28;20048;-82
2021/10/20 04:51:41;;;;;;;43.63;30.95;;;10.30;99.90;;;;;;5055775;28;20051;-82
2021/10/20 04:54:06;;;;;;;49.45;31.42;;;10.30;99.90;;;;;;5037618;28;20083;-82
2021/10/20 04:56:32;;;;;;;50.70;32.67;;;10.30;99.90;;;;;;5055434;28;20029;-81
2021/10/20 04:58:58;;;;;;;55.40;35.05;;;10.30;99.90;;;;;;5037196;28;20052;-81
2021/10/20 05:01:24;;;;;;;50.35;32.90;;;10.30;99.90;;;;;;5055776;28;20032;-90
2021/10/20 05:03:49;;;;;;;48.95;31.98;;;10.20;99.90;;;;;;5056033;28;20047;-86
2021/10/20 05:06:15;;;;;;;52.92;32.13;;;10.30;99.90;;;;;;5055310;28;20426;-83
2021/10/20 05:08:41;;;;;;;49.95;33.13;;;10.20;99.90;;;;;;5055664;28;20551;-89
2021/10/20 05:11:06;;;;;;;55.40;34.72;;;10.30;99.90;;;;;;5043381;28;20120;-84
2021/10/20 05:13:32;;;;;;;50.05;34.38;;;10.30;99.90;;;;;;5036765;28;20384;-86
2021/10/20 05:15:58;;;;;;;55.35;35.22;;;10.30;99.90;;;;;;5055754;28;20384;-82
2021/10/20 05:18:24;;;;;;;54.10;34.47;;;10.30;99.90;;;;;;5055452;28;20531;-85
2021/10/20 05:20:49;;;;;;;56.60;36.55;;;10.30;99.90;;;;;;5056249;28;20079;-90
2021/10/20 05:23:16;;;;;;;59.35;37.45;;;10.30;99.90;;;;;;5055175;28;20051;-82
2021/10/20 05:25:42;;;;;;;58.65;37.97;;;10.30;99.90;;;;;;5054913;28;20036;-82
2021/10/20 05:28:08;;;;;;;61.85;36.83;;;10.30;99.90;;;;;;5054892;28;20087;-82
2021/10/20 05:30:34;;;;;;;62.33;37.78;;;10.30;99.90;;;;;;5055035;28;20410;-82
2021/10/20 05:33:00;;;;;;;55.45;35.13;;;10.30;99.90;;;;;;5054923;28;20104;-82
2021/10/20 05:35:26;;;;;;;60.58;37.95;;;10.30;99.90;;;;;;5054938;28;20451;-82
2021/10/20 05:37:53;;;;;;;57.67;36.17;;;10.30;99.90;;;;;;5055163;28;20498;-88
2021/10/20 05:40:21;;;;;;;59.47;37.72;;;10.30;99.90;;;;;;5055217;28;20483;-84
2021/10/20 05:42:47;;;;;;;57.00;38.13;;;10.40;99.90;;;;;;5054830;28;20017;-78
2021/10/20 05:45:13;;;;;;;61.67;37.95;;;10.40;99.90;;;;;;5054170;28;20053;-80
2021/10/20 05:47:39;;;;;;;62.03;39.22;;;10.40;99.90;;;;;;5036566;28;20554;-80
2021/10/20 05:50:05;;;;;;;62.90;39.75;;;10.40;99.90;;;;;;5054625;28;20063;-80
2021/10/20 05:52:31;;;;;;;58.55;39.92;;;10.40;99.90;;;;;;5054428;28;20025;-78
2021/10/20 05:55:00;;;;;;;65.80;39.88;;;10.50;99.90;;;;;;5054353;28;20025;-79
2021/10/20 05:57:27;;;;;;;59.22;39.45;;;10.50;99.90;;;;;;5054145;28;20075;-82
2021/10/20 05:59:54;;;;;;;60.25;37.22;;;10.50;99.90;;;;;;5054490;28;20223;-85
2021/10/20 06:02:20;;;;;;;61.10;38.90;;;10.60;99.90;;;;;;5054505;28;20037;-82
2021/10/20 06:04:45;;;;;;;65.47;40.35;;;10.60;99.90;;;;;;5055298;28;20570;-87
2021/10/20 06:07:11;;;;;;;58.70;39.53;;;10.70;99.90;;;;;;5055444;28;20049;-87
2021/10/20 06:09:37;;;;;;;70.68;40.42;;;10.70;99.90;;;;;;5055269;28;20028;-85
2021/10/20 06:12:04;;;;;;;58.33;37.88;;;10.80;99.90;;;;;;5054628;28;20028;-84
2021/10/20 06:14:31;;;;;;;63.75;38.97;;;10.90;99.90;;;;;;5055136;28;20079;-89
2021/10/20 06:16:56;;;;;;;65.35;41.75;;;10.90;99.90;;;;;;5055010;28;20115;-86
2021/10/20 06:19:23;;;;;;;63.97;40.47;;;11.00;99.90;;;;;;5055637;28;20072;-88
2021/10/20 06:21:48;;;;;;;61.13;39.72;;;11.10;99.90;;;;;;5055562;28;20083;-87
2021/10/20 06:24:14;;;;;;;66.10;38.92;;;11.20;99.90;;;;;;5054538;28;20475;-88
2021/10/20 06:26:40;;;;;;;64.88;41.50;;;11.20;99.90;;;;;;5055057;28;20068;-88
2021/10/20 06:29:07;;;;;;;58.33;39.03;;;11.30;99.90;;;;;;5054675;28;20017;-86
2021/10/20 06:31:33;;;;;;;65.57;41.10;;;11.40;99.90;;;;;;5037907;28;20036;-89
2021/10/20 06:33:58;;;;;;;66.05;41.40;;;11.50;99.90;;;;;;5054894;28;20017;-88
2021/10/20 06:36:32;;;;;;;65.25;41.50;;;11.60;99.90;;;;;;5056060;28;20597;-89
2021/10/20 06:38:59;;;;;;;58.95;39.65;;;11.70;99.90;;;;;;5055179;28;20437;-88
2021/10/20 06:41:26;;;;;;;65.80;43.80;;;11.70;99.90;;;;;;5037399;28;20017;-85
2021/10/20 06:43:52;;;;;;;72.03;43.70;;;11.90;99.90;;;;;;5036934;28;20048;-86
2021/10/20 06:46:18;;;;;;;69.35;43.63;;;11.90;99.90;;;;;;5054776;28;20035;-87
2021/10/20 06:48:44;;;;;;;69.25;41.85;;;12.00;99.90;;;;;;5057423;28;20100;-87
2021/10/20 06:51:10;;;;;;;62.20;41.80;;;12.10;99.90;;;;;;5037694;28;20483;-89
2021/10/20 06:53:36;;;;;;;62.13;42.13;;;12.10;99.90;;;;;;5055560;28;20047;-88
2021/10/20 06:56:04;;;;;;;67.40;42.33;;;12.20;99.90;;;;;;5054947;28;20033;-87
2021/10/20 06:58:29;;;;;;;78.35;41.22;;;12.30;99.90;;;;;;5037967;28;20017;-87
2021/10/20 07:00:55;;;;;;;66.32;42.03;;;12.40;99.90;;;;;;5036362;28;20099;-87
2021/10/20 07:03:21;;;;;;;67.38;41.13;;;12.40;99.90;;;;;;5054678;28;20025;-89
2021/10/20 07:05:47;;;;;;;65.88;42.22;;;12.50;99.90;;;;;;5053817;28;20036;-86
2021/10/20 07:08:13;;;;;;;67.15;43.00;;;12.60;99.90;;;;;;5053709;28;20029;-86
2021/10/20 07:10:39;;;;;;;73.00;41.92;;;12.70;99.90;;;;;;5036149;28;20116;-86
2021/10/20 07:13:05;;;;;;;61.10;40.92;;;12.80;99.90;;;;;;5035766;28;20052;-86
2021/10/20 07:15:31;;;;;;;61.13;40.45;;;12.90;99.90;;;;;;5053501;28;20075;-84
2021/10/20 07:17:57;;;;;;;62.50;40.65;;;13.10;99.90;;;;;;5053313;28;20540;-85
2021/10/20 07:20:23;;;;;;;63.35;41.10;;;13.20;99.90;;;;;;5052967;28;20025;-85
2021/10/20 07:22:49;;;;;;;62.20;39.30;;;13.30;99.90;;;;;;5035210;28;20029;-85
2021/10/20 07:25:17;;;;;;;67.15;39.20;;;13.50;99.90;;;;;;5053154;28;20140;-85
2021/10/20 07:27:43;;;;;;;62.90;40.85;;;13.50;99.90;;;;;;5053229;28;20105;-85
2021/10/20 07:30:10;;;;;;;58.58;41.40;;;13.70;99.90;;;;;;5052942;28;20104;-85
2021/10/20 07:32:39;;;;;;;56.33;40.50;;;13.80;99.90;;;;;;5053369;28;20532;-85
2021/10/20 07:35:09;;;;;;;65.72;42.10;;;13.90;99.90;;;;;;5053263;28;20025;-85
2021/10/20 07:37:35;;;;;;;61.58;40.05;;;14.00;99.90;;;;;;5038181;28;20025;-86
2021/10/20 07:40:02;;;;;;;67.13;40.08;;;14.20;99.90;;;;;;5057340;28;20052;-87
2021/10/20 07:42:28;;;;;;;63.13;40.88;;;14.30;99.90;;;;;;5057237;28;20029;-86
2021/10/20 07:44:53;;;;;;;58.30;39.17;;;14.50;99.90;;;;;;5057003;28;20430;-85
2021/10/20 07:47:20;;;;;;;71.03;41.83;;;14.60;99.90;;;;;;5039284;28;20025;-84
2021/10/20 07:49:47;;;;;;;58.65;39.13;;;14.70;99.90;;;;;;5038927;28;20040;-84
2021/10/20 07:52:13;;;;;;;67.00;42.85;;;14.80;99.90;;;;;;5057073;28;20365;-84
2021/10/20 07:54:39;;;;;;;62.33;40.67;;;15.00;99.90;;;;;;5038836;28;20046;-83
2021/10/20 07:57:05;;;;;;;62.47;40.00;;;15.10;99.90;;;;;;5056898;28;20463;-86
2021/10/20 07:59:31;;;;;;;60.10;41.40;;;15.20;99.90;;;;;;5038881;28;20131;-86
2021/10/20 08:01:56;;;;;;;61.90;41.08;;;15.30;99.90;;;;;;5056970;28;20167;-86
2021/10/20 08:04:22;;;;;;;64.28;40.88;;;15.50;99.90;;;;;;5056931;28;20081;-84
2021/10/20 08:06:48;;;;;;;63.22;41.78;;;15.50;99.80;;;;;;5038936;28;20561;-86
2021/10/20 08:09:14;;;;;;;68.95;44.15;;;15.70;99.80;;;;;;5057006;28;20536;-86
2021/10/20 08:11:39;;;;;;;62.88;40.65;;;15.90;99.20;;;;;;5056937;28;20021;-85
2021/10/20 08:14:06;;;;;;;72.20;45.38;;;16.10;98.80;;;;;;5056773;28;20079;-86
2021/10/20 08:16:31;;;;;;;69.82;44.83;;;16.20;98.30;;;;;;5038897;28;20028;-85
2021/10/20 08:18:57;;;;;;;66.63;45.05;;;16.30;98.50;;;;;;5038568;28;20095;-87
2021/10/20 08:21:23;;;;;;;72.53;45.75;;;16.40;97.70;;;;;;5056481;28;20470;-85
2021/10/20 08:23:49;;;;;;;69.50;48.30;;;16.50;98.00;;;;;;5039351;28;20028;-88
2021/10/20 08:26:15;;;;;;;78.55;50.10;;;16.70;97.60;;;;;;5056967;28;21053;-88
2021/10/20 08:28:42;;;;;;;78.30;50.47;;;16.80;96.90;;;;;;5038445;28;20104;-85
2021/10/20 08:31:07;;;;;;;89.55;52.28;;;17.00;97.40;;;;;;5056157;28;20029;-83
2021/10/20 08:33:33;;;;;;;72.90;51.40;;;17.10;96.40;;;;;;5038457;28;20589;-90
2021/10/20 08:35:59;;;;;;;81.35;54.08;;;17.20;95.10;;;;;;5056800;28;20029;-89
2021/10/20 08:38:25;;;;;;;87.30;57.22;;;17.40;95.10;;;;;;5056932;28;20025;-90
2021/10/20 08:40:51;;;;;;;85.20;55.55;;;17.50;94.80;;;;;;5056899;28;20021;-91
2021/10/20 08:43:20;;;;;;;83.40;55.08;;;17.40;95.10;;;;;;5056850;28;20021;-90
2021/10/20 08:45:47;;;;;;;73.18;51.88;;;17.60;95.40;;;;;;5056419;28;20045;-85
2021/10/20 08:48:14;;;;;;;88.50;57.58;;;17.80;95.70;;;;;;5055926;28;20111;-85
2021/10/20 08:50:40;;;;;;;80.70;56.70;;;17.90;94.40;;;;;;5056034;28;20027;-85
2021/10/20 08:53:06;;;;;;;85.93;56.63;;;18.00;94.90;;;;;;5055814;28;20021;-85
2021/10/20 08:55:33;;;;;;;84.45;49.75;;;18.00;95.40;;;;;;5038211;28;20116;-85
2021/10/20 08:58:00;;;;;;;88.05;57.60;;;18.10;95.30;;;;;;5055892;28;20021;-85
2021/10/20 09:00:27;;;;;;;99.93;60.40;;;18.20;96.30;;;;;;5055538;28;20048;-86
2021/10/20 09:02:54;;;;;;;108.70;73.93;;;18.40;95.90;;;;;;5055516;28;20017;-85
2021/10/20 09:05:26;;;;;;;107.10;71.50;;;18.30;97.70;;;;;;5037968;28;20029;-84
2021/10/20 09:07:54;;;;;;;106.32;72.95;;;18.10;98.70;;;;;;5056041;28;20017;-86
2021/10/20 09:10:21;;;;;;;111.15;73.38;;;18.00;99.60;;;;;;5055596;28;20029;-85
2021/10/20 09:12:47;;;;;;;109.10;75.10;;;18.20;99.30;;;;;;5038102;28;20380;-87
2021/10/20 09:15:21;;;;;;;109.78;70.15;;;18.30;99.40;;;;;;5055875;28;20127;-86
2021/10/20 09:17:57;;;;;;;112.47;76.35;;;18.40;99.70;;;;;;5037909;28;20426;-85
2021/10/20 09:20:25;;;;;;;108.57;73.88;;;18.50;98.40;;;;;;5037478;28;20052;-86
2021/10/20 09:23:04;;;;;;;113.50;70.95;;;18.40;99.30;;;;;;5037888;28;20029;-86
2021/10/20 09:25:40;;;;;;;107.22;70.53;;;18.50;99.00;;;;;;5055324;28;20510;-86
2021/10/20 09:28:12;;;;;;;103.53;74.63;;;18.60;99.40;;;;;;5055091;28;20033;-86
2021/10/20 09:30:42;;;;;;;108.43;72.20;;;18.60;98.40;;;;;;5055090;28;20074;-87
2021/10/20 09:33:09;;;;;;;106.47;74.43;;;18.40;98.40;;;;;;5055319;28;20079;-87
2021/10/20 09:35:35;;;;;;;110.30;73.55;;;18.30;99.00;;;;;;5054981;28;20021;-87
2021/10/20 09:38:02;;;;;;;106.43;76.40;;;18.10;99.90;;;;;;5055026;28;20040;-86
2021/10/20 09:40:47;;;;;;;112.53;74.18;;;18.10;99.20;;;;;;5054713;28;20094;-86
2021/10/20 09:43:17;;;;;;;116.18;76.03;;;17.90;99.80;;;;;;5054899;28;20025;-87
2021/10/20 09:45:44;;;;;;;111.82;75.25;;;17.80;99.80;;;;;;5054889;28;20401;-87
2021/10/20 09:48:10;;;;;;;118.22;77.38;;;17.80;99.90;;;;;;5054645;28;20502;-86
2021/10/20 09:51:06;;;;;;;114.22;75.63;;;17.80;99.90;;;;;;5037014;28;20071;-87
2021/10/20 09:53:35;;;;;;;116.53;75.22;;;17.70;99.90;;;;;;5036882;28;20033;-86
2021/10/20 09:56:23;;;;;;;118.97;78.00;;;17.80;99.90;;;;;;5054693;28;20005;-85
2021/10/20 09:58:52;;;;;;;114.65;77.53;;;17.70;99.90;;;;;;5053177;28;20120;-85
2021/10/20 10:01:21;;;;;;;119.88;78.07;;;17.70;99.90;;;;;;5054500;28;20036;-85
2021/10/20 10:03:50;;;;;;;106.68;75.78;;;17.80;99.80;;;;;;5054285;28;20025;-84
2021/10/20 10:06:16;;;;;;;106.32;74.22;;;17.90;99.50;;;;;;5054151;28;20033;-87
2021/10/20 10:08:42;;;;;;;114.95;70.88;;;17.90;99.90;;;;;;5036425;28;20028;-85
2021/10/20 10:11:08;;;;;;;107.78;71.50;;;18.00;99.20;;;;;;5054457;28;20155;-86
2021/10/20 10:13:50;;;;;;;110.97;70.38;;;18.00;98.30;;;;;;5053969;28;20116;-86
2021/10/20 10:16:20;;;;;;;106.65;69.93;;;17.90;99.60;;;;;;5054001;28;20029;-85
2021/10/20 10:18:46;;;;;;;103.93;67.82;;;17.90;99.30;;;;;;5053856;28;20029;-86
2021/10/20 10:21:31;;;;;;;105.30;68.05;;;17.80;99.50;;;;;;5053824;28;20010;-85
2021/10/20 10:23:59;;;;;;;106.13;67.68;;;17.90;99.90;;;;;;5056193;28;20021;-86
2021/10/20 10:26:27;;;;;;;109.18;68.45;;;18.00;99.60;;;;;;5037153;28;20033;-85
2021/10/20 10:29:14;;;;;;;116.20;67.18;;;18.20;98.80;;;;;;5037389;28;20029;-85
2021/10/20 10:31:44;;;;;;;101.60;68.93;;;18.50;97.10;;;;;;5055272;28;20029;-83
2021/10/20 10:34:35;;;;;;;110.85;69.30;;;18.40;96.90;;;;;;5053643;28;20021;-85
2021/10/20 10:37:01;;;;;;;95.95;65.65;;;18.40;97.00;;;;;;5053755;28;20025;-85
2021/10/20 10:39:28;;;;;;;109.40;69.35;;;18.70;96.60;;;;;;5035728;28;20112;-85
2021/10/20 10:42:14;;;;;;;103.60;67.72;;;18.80;95.20;;;;;;5053636;28;20083;-86
2021/10/20 10:44:50;;;;;;;99.07;66.72;;;18.70;95.70;;;;;;5053149;28;20033;-84
2021/10/20 10:47:25;;;;;;;93.00;65.80;;;18.80;94.90;;;;;;5053443;28;20061;-85
2021/10/20 10:49:56;;;;;;;92.13;63.53;;;18.90;94.60;;;;;;5053548;28;20564;-85
2021/10/20 10:52:21;;;;;;;98.88;62.75;;;18.90;94.30;;;;;;5035922;28;20095;-86
2021/10/20 10:55:17;;;;;;;98.43;62.55;;;18.90;94.10;;;;;;5053833;28;20469;-85
2021/10/20 10:57:50;;;;;;;87.25;60.50;;;19.10;94.10;;;;;;5035512;28;20025;-86
2021/10/20 11:00:19;;;;;;;91.55;58.28;;;19.20;93.70;;;;;;5052843;28;20053;-85
2021/10/20 11:02:51;;;;;;;92.10;62.05;;;19.10;93.20;;;;;;5053340;28;20025;-85
2021/10/20 11:05:28;;;;;;;90.63;59.28;;;18.90;93.70;;;;;;5053245;28;20025;-85
2021/10/20 11:08:06;;;;;;;83.32;58.97;;;18.90;93.90;;;;;;5053266;28;20037;-86
2021/10/20 11:10:34;;;;;;;79.65;59.53;;;18.80;94.90;;;;;;5035100;28;20531;-85
2021/10/20 11:13:01;;;;;;;90.88;62.55;;;18.90;94.80;;;;;;5053268;28;20036;-88
2021/10/20 11:15:29;;;;;;;89.88;59.65;;;18.90;95.10;;;;;;5053200;28;20479;-85
2021/10/20 11:17:57;;;;;;;90.57;58.75;;;19.10;94.00;;;;;;5035227;28;20131;-82
2021/10/20 11:20:27;;;;;;;84.43;57.10;;;19.00;94.20;;;;;;5034782;28;20032;-80
2021/10/20 11:22:56;;;;;;;85.25;60.90;;;19.10;93.70;;;;;;5052718;28;20028;-83
2021/10/20 11:25:23;;;;;;;91.75;61.00;;;19.30;93.80;;;;;;5052616;28;20491;-83
2021/10/20 11:27:55;;;;;;;88.97;61.75;;;19.10;93.90;;;;;;5034597;28;20074;-83
2021/10/20 11:30:26;;;;;;;95.03;61.30;;;18.70;94.40;;;;;;5052486;28;20063;-79
2021/10/20 11:32:52;;;;;;;92.05;63.85;;;18.40;95.30;;;;;;5052352;28;20013;-81
2021/10/20 11:35:26;;;;;;;95.00;62.58;;;18.10;96.50;;;;;;5052668;28;20074;-83
2021/10/20 11:38:06;;;;;;;100.60;66.35;;;18.10;97.10;;;;;;5052349;28;20028;-80
2021/10/20 11:40:34;;;;;;;101.53;66.15;;;18.10;97.60;;;;;;5053344;28;20051;-77
2021/10/20 11:43:00;;;;;;;94.55;66.47;;;18.20;97.80;;;;;;5059566;28;20485;-78
2021/10/20 11:45:29;;;;;;;96.72;67.72;;;18.40;98.20;;;;;;5039969;28;20099;-79
2021/10/20 11:48:01;;;;;;;99.40;66.00;;;18.50;98.30;;;;;;5038932;28;20025;-81
2021/10/20 11:50:27;;;;;;;98.85;66.50;;;18.80;97.80;;;;;;5053798;28;20501;-79
2021/10/20 11:53:03;;;;;;;93.45;64.65;;;19.20;96.90;;;;;;5052162;28;20452;-79
2021/10/20 11:55:29;;;;;;;93.07;63.83;;;19.30;97.40;;;;;;5052335;28;20017;-79
2021/10/20 11:57:56;;;;;;;104.70;71.57;;;19.30;96.50;;;;;;5034081;28;20029;-78
2021/10/20 12:00:23;;;;;;;104.15;71.88;;;18.80;97.50;;;;;;5051857;28;20051;-78
2021/10/20 12:02:49;;;;;;;105.47;71.95;;;18.40;98.40;;;;;;5034170;28;20032;-78
2021/10/20 12:05:15;;;;;;;99.03;70.90;;;18.20;99.60;;;;;;5051882;28;20120;-78
2021/10/20 12:07:46;;;;;;;108.07;73.95;;;18.00;99.90;;;;;;5052078;28;20030;-78
2021/10/20 12:10:12;;;;;;;104.30;73.38;;;18.00;99.90;;;;;;5051961;28;20032;-79
2021/10/20 12:12:38;;;;;;;111.65;75.57;;;17.90;99.90;;;;;;5033844;28;20029;-78
2021/10/20 12:15:05;;;;;;;102.95;71.57;;;17.90;99.90;;;;;;5051317;28;20090;-78
2021/10/20 12:17:31;;;;;;;102.18;70.85;;;17.90;99.90;;;;;;5051849;28;20050;-79
2021/10/20 12:19:58;;;;;;;94.90;66.57;;;18.20;99.90;;;;;;5050582;28;20104;-79
2021/10/20 12:22:26;;;;;;;98.97;69.13;;;18.50;99.90;;;;;;5052546;28;20020;-79
2021/10/20 12:24:52;;;;;;;106.50;70.47;;;18.60;99.90;;;;;;5055498;28;20059;-77
2021/10/20 12:27:20;;;;;;;91.05;66.50;;;18.10;99.90;;;;;;5055656;28;20024;-78
2021/10/20 12:29:49;;;;;;;102.47;69.05;;;17.90;99.90;;;;;;5055501;28;20025;-79